EGPB/LSI METAR and TAF weather

Enter ICAO airport designator
Station Type Date Time Source
EGPB METAR 2019/06/19 03:20 UTC NOAA

EGPB 190320Z AUTO 17005KT 9999 FEW039/// 11/10 Q1006


Station Type Date Time Source
EGPB Decoded METAR 2019/06/19 03:20 UTC NOAA

Sumburgh Cape , United Kingdom (EGPB) 59-53N 001-18W
Jun 18, 2019 - 11:20 PM EDT / 2019.06.19 0320 UTC
Wind: from the S (170 degrees) at 6 MPH (5 KT):0
Visibility: greater than 7 mile(s):0
Sky conditions: mostly clear
Temperature: 51 F (11 C)
Dew Point: 50 F (10 C)
Relative Humidity: 93%
Pressure (altimeter): 29.71 in. Hg (1006 hPa)
ob: EGPB 190320Z AUTO 17005KT 9999 FEW039/// 11/10 Q1006
cycle: 3

Station Type Date Time Source
EGPB TAF UTC NOAA

Error!

Example: see airport list